^^
Soleil Laural Canyon Historical Data
 
Daily Summary for October 21, 2019 Units:  English    Metric   Both
Daily Weekly Monthly Yearly Custom
  Current: High: Low: Average:
Temperature: 65.8 °F 65.8 °F 52.3 °F 56.2 °F
Dew Point: 62.1 °F 62.2 °F 51.6 °F 55.3 °F
Humidity: 88% 97% 88% 97%
Wind Speed: 4mph 5.8mph 0mph 1.5mph
Wind Gust: 4.5mph 8.1mph - -
WindWest - - West
Pressure: 30.04 in 30.09 in 30.00 in -
Precipitation: 0 in      
Historical Graphs
 
 
Tabular Data for October 21, 2019
Time Temperature Dew Point Pressure Wind Wind Speed Wind Gust Humidity Rainfall Rate (Hourly) solar
00:00 56.5 °F 55.4 °F 30.04 in Calm     96% 0 in 0.00 W/m2
00:05 56.7 °F 55.6 °F 30.03 in Calm     96% 0 in 0.00 W/m2
00:10 56.1 °F 55 °F 30.02 in Calm     96% 0 in 0.00 W/m2
00:15 56.1 °F 55 °F 30.03 in Calm     96% 0 in 0.00 W/m2
00:20 55.9 °F 54.9 °F 30.03 in Calm     96% 0 in 0.00 W/m2
00:25 56.1 °F 55.4 °F 30.04 in Calm     97% 0 in 0.00 W/m2
00:30 55.9 °F 54.9 °F 30.03 in Calm     96% 0 in 0.00 W/m2
00:35 55.4 °F 54.3 °F 30.03 in Calm     96% 0 in 0.00 W/m2
00:40 55.4 °F 54.3 °F 30.03 in Calm     96% 0 in 0.00 W/m2
00:45 55 °F 54.3 °F 30.03 in Calm     97% 0 in 0.00 W/m2
00:50 55.2 °F 54.5 °F 30.04 in Calm     97% 0 in 0.00 W/m2
00:55 55 °F 54.3 °F 30.03 in Calm     97% 0 in 0.00 W/m2
01:00 55 °F 54.3 °F 30.03 in Calm     97% 0 in 0.00 W/m2
01:05 54.9 °F 54.1 °F 30.03 in Calm     97% 0 in 0.00 W/m2
01:10 54.5 °F 53.8 °F 30.03 in Calm     97% 0 in 0.00 W/m2
01:15 54.7 °F 54 °F 30.02 in Calm     97% 0 in 0.00 W/m2
01:20 54.5 °F 53.8 °F 30.03 in Calm     97% 0 in 0.00 W/m2
01:25 54.3 °F 53.6 °F 30.03 in Calm     97% 0 in 0.00 W/m2
01:30 54.1 °F 53.4 °F 30.03 in Calm     97% 0 in 0.00 W/m2
01:35 54.7 °F 54 °F 30.02 in Calm     97% 0 in 0.00 W/m2
01:40 54.3 °F 53.6 °F 30.02 in Calm     97% 0 in 0.00 W/m2
01:45 54.1 °F 53.4 °F 30.02 in Calm     97% 0 in 0.00 W/m2
01:50 54.1 °F 53.4 °F 30.02 in Calm     97% 0 in 0.00 W/m2
01:55 54.1 °F 53.4 °F 30.02 in Calm     97% 0 in 0.00 W/m2
02:00 54.1 °F 53.4 °F 30.02 in Calm     97% 0 in 0.00 W/m2
02:05 54.3 °F 53.6 °F 30.02 in Calm     97% 0 in 0.00 W/m2
02:10 54.1 °F 53.4 °F 30.02 in Calm     97% 0 in 0.00 W/m2
02:15 54.1 °F 53.4 °F 30.03 in Calm     97% 0 in 0.00 W/m2
02:20 54.1 °F 53.4 °F 30.02 in Calm     97% 0 in 0.00 W/m2
02:25 54 °F 53.2 °F 30.02 in Calm     97% 0 in 0.00 W/m2
02:30 53.8 °F 53.1 °F 30.03 in Calm     97% 0 in 0.00 W/m2
02:35 54.3 °F 53.6 °F 30.03 in Calm     97% 0 in 0.00 W/m2
02:40 53.6 °F 52.9 °F 30.04 in Calm     97% 0 in 0.00 W/m2
02:45 53.4 °F 52.7 °F 30.03 in Calm     97% 0 in 0.00 W/m2
02:50 53.6 °F 52.9 °F 30.03 in Calm     97% 0 in 0.00 W/m2
02:55 53.1 °F 52.3 °F 30.02 in Calm     97% 0 in 0.00 W/m2
03:00 52.7 °F 52 °F 30.02 in Calm     97% 0 in 0.00 W/m2
03:05 52.9 °F 52.2 °F 30.02 in Calm     97% 0 in 0.00 W/m2
03:10 53.2 °F 52.5 °F 30.02 in Calm     97% 0 in 0.00 W/m2
03:15 53.2 °F 52.5 °F 30.02 in Calm     97% 0 in 0.00 W/m2
03:20 52.5 °F 51.8 °F 30.02 in Calm     97% 0 in 0.00 W/m2
03:25 52.3 °F 51.6 °F 30.02 in Calm     97% 0 in 0.00 W/m2
03:30 52.7 °F 52 °F 30.01 in Calm     97% 0 in 0.00 W/m2
03:35 53.1 °F 52.3 °F 30.01 in Calm     97% 0 in 0.00 W/m2
03:40 53.6 °F 52.9 °F 30.02 in Calm     97% 0 in 0.00 W/m2
03:45 53.1 °F 52.3 °F 30.02 in West 0.2 mph 1.1 mph 97% 0 in 0.00 W/m2
03:50 52.3 °F 51.6 °F 30.01 in Calm     97% 0 in 0.00 W/m2
03:55 52.5 °F 51.8 °F 30.01 in Calm     97% 0 in 0.00 W/m2
04:00 52.9 °F 52.2 °F 30.00 in Calm     97% 0 in 0.00 W/m2
04:05 52.9 °F 52.2 °F 30.01 in Calm     97% 0 in 0.00 W/m2
04:10 52.9 °F 52.2 °F 30.00 in Calm     97% 0 in 0.00 W/m2
04:15 52.9 °F 52.2 °F 30.01 in Calm     97% 0 in 0.00 W/m2
04:20 52.9 °F 52.2 °F 30.00 in Calm     97% 0 in 0.00 W/m2
04:25 52.9 °F 52.2 °F 30.00 in Calm     97% 0 in 0.00 W/m2
04:30 52.9 °F 52.2 °F 30.01 in Calm     97% 0 in 0.00 W/m2
04:35 52.9 °F 52.2 °F 30.01 in Calm     97% 0 in 0.00 W/m2
04:40 52.9 °F 52.2 °F 30.00 in Calm     97% 0 in 0.00 W/m2
04:45 54.1 °F 53.4 °F 30.00 in West 1.3 mph 2.2 mph 97% 0 in 0.00 W/m2
04:50 54.1 °F 53.4 °F 30.00 in WNW 0.9 mph 1.1 mph 97% 0 in 0.00 W/m2
04:55 54.1 °F 53.4 °F 30.01 in Calm     97% 0 in 0.00 W/m2
05:00 54.1 °F 53.4 °F 30.00 in West 0.2 mph 1.1 mph 97% 0 in 0.00 W/m2
05:05 54.3 °F 53.6 °F 30.00 in West 2.2 mph 2.2 mph 97% 0 in 0.00 W/m2
05:10 54.3 °F 53.6 °F 30.01 in Calm     97% 0 in 0.00 W/m2
05:15 54.5 °F 53.8 °F 30.01 in West 0.9 mph 1.1 mph 97% 0 in 0.00 W/m2
05:20 54.5 °F 53.8 °F 30.02 in West 0.9 mph 1.1 mph 97% 0 in 0.00 W/m2
05:25 54.7 °F 54 °F 30.02 in WNW 1.1 mph 1.1 mph 97% 0 in 0.00 W/m2
05:30 54.7 °F 54 °F 30.02 in Calm     97% 0 in 0.00 W/m2
05:35 54.7 °F 54 °F 30.02 in Calm     97% 0 in 0.00 W/m2
05:40 54.7 °F 54 °F 30.02 in Calm     97% 0 in 0.00 W/m2
05:45 54.1 °F 53.4 °F 30.02 in Calm     97% 0 in 0.00 W/m2
05:51 54.3 °F 53.6 °F 30.01 in WNW 0.4 mph 1.1 mph 97% 0 in 0.00 W/m2
05:55 54.3 °F 53.6 °F 30.01 in WNW 0.9 mph 1.1 mph 97% 0 in 0.00 W/m2
06:00 54.1 °F 53.4 °F 30.01 in WNW 1.8 mph 2.2 mph 97% 0 in 0.00 W/m2
06:05 54.3 °F 53.6 °F 30.00 in Calm     97% 0 in 0.00 W/m2
06:10 54 °F 53.2 °F 30.01 in Calm     97% 0 in 0.00 W/m2
06:15 54.1 °F 53.4 °F 30.02 in WNW 0.2 mph 1.1 mph 97% 0 in 0.00 W/m2
06:20 54.1 °F 53.4 °F 30.02 in Calm     97% 0 in 0.00 W/m2
06:25 54.5 °F 53.8 °F 30.02 in WNW 1.1 mph 1.1 mph 97% 0 in 0.00 W/m2
06:30 54.7 °F 54 °F 30.02 in West 1.6 mph 2.2 mph 97% 0 in 0.00 W/m2
06:35 55 °F 54.3 °F 30.03 in West 0.9 mph 1.1 mph 97% 0 in 0.00 W/m2
06:40 55 °F 54.3 °F 30.02 in WNW 2 mph 2.2 mph 97% 0 in 0.00 W/m2
06:45 55 °F 54.3 °F 30.04 in Calm     97% 0 in 0.00 W/m2
06:50 54.9 °F 54.1 °F 30.03 in WNW 1.6 mph 2.2 mph 97% 0 in 0.00 W/m2
06:55 55 °F 54.3 °F 30.03 in West 1.1 mph 1.1 mph 97% 0 in 0.00 W/m2
07:00 55.4 °F 54.7 °F 30.04 in West 2.5 mph 3.4 mph 97% 0 in 0.00 W/m2
07:05 55.4 °F 54.7 °F 30.03 in WSW 2.2 mph 3.4 mph 97% 0 in 0.00 W/m2
07:10 55.4 °F 54.7 °F 30.04 in WSW 2.2 mph 3.4 mph 97% 0 in 0.00 W/m2
07:15 55.4 °F 54.7 °F 30.04 in WSW 2.2 mph 3.4 mph 97% 0 in 0.00 W/m2
07:20 55.4 °F 54.7 °F 30.04 in WSW 2.2 mph 3.4 mph 97% 0 in 0.00 W/m2
07:25 55.4 °F 54.7 °F 30.04 in WSW 2.2 mph 3.4 mph 97% 0 in 0.00 W/m2
07:30 55.4 °F 54.7 °F 30.04 in WSW 2.2 mph 3.4 mph 97% 0 in 0.00 W/m2
07:35 55.4 °F 54.7 °F 30.04 in West 2.2 mph 2.2 mph 97% 0 in 0.00 W/m2
07:40 55.2 °F 54.5 °F 30.04 in WNW 1.8 mph 2.2 mph 97% 0 in 0.00 W/m2
07:45 55.2 °F 54.5 °F 30.03 in WNW 1.8 mph 2.2 mph 97% 0 in 0.00 W/m2
07:50 55.2 °F 54.5 °F 30.03 in WNW 1.8 mph 2.2 mph 97% 0 in 0.00 W/m2
07:55 55.2 °F 54.5 °F 30.04 in WNW 1.8 mph 2.2 mph 97% 0 in 0.00 W/m2
08:00 55 °F 54.3 °F 30.04 in West 2.2 mph 3.4 mph 97% 0 in 8.56 W/m2
08:05 55 °F 54.3 °F 30.03 in West 2 mph 2.2 mph 97% 0 in 12.11 W/m2
08:10 55.2 °F 54.5 °F 30.04 in West 3.6 mph 4.5 mph 97% 0 in 12.97 W/m2
08:15 55.4 °F 54.7 °F 30.04 in West 1.6 mph 2.2 mph 97% 0 in 13.82 W/m2
08:20 55.6 °F 54.9 °F 30.04 in West 2.9 mph 3.4 mph 97% 0 in 19.08 W/m2
08:25 55.9 °F 55.2 °F 30.05 in West 3.4 mph 3.4 mph 97% 0 in 20.80 W/m2
08:30 56.1 °F 55.4 °F 30.04 in West 3.4 mph 4.5 mph 97% 0 in 25.07 W/m2
08:35 56.5 °F 55.8 °F 30.04 in West 4.9 mph 6.9 mph 97% 0 in 26.42 W/m2
08:40 56.7 °F 55.9 °F 30.04 in WNW 3.4 mph 4.5 mph 97% 0 in 43.31 W/m2
08:45 56.8 °F 56.1 °F 30.05 in WNW 3.4 mph 5.8 mph 97% 0 in 45.51 W/m2
08:50 57 °F 56.3 °F 30.05 in WNW 4.5 mph 5.8 mph 97% 0 in 51.50 W/m2
08:55 57.2 °F 56.5 °F 30.04 in WNW 4 mph 5.8 mph 97% 0 in 63.24 W/m2
09:00 57.6 °F 56.8 °F 30.05 in WNW 3.4 mph 3.4 mph 97% 0 in 91.87 W/m2
09:05 57.7 °F 57 °F 30.05 in WNW 3.8 mph 4.5 mph 97% 0 in 102.76 W/m2
09:10 58.1 °F 57.4 °F 30.05 in WNW 3.8 mph 4.5 mph 97% 0 in 110.59 W/m2
09:15 58.1 °F 57.4 °F 30.05 in WNW 1.8 mph 2.2 mph 97% 0 in 124.05 W/m2
09:20 58.1 °F 57.4 °F 30.06 in WNW 1.8 mph 2.2 mph 97% 0 in 124.05 W/m2
09:25 58.3 °F 57.6 °F 30.06 in West 4 mph 4.5 mph 97% 0 in 92.73 W/m2
09:30 58.6 °F 57.9 °F 30.06 in West 1.3 mph 2.2 mph 97% 0 in 103.61 W/m2
09:35 58.8 °F 58.1 °F 30.06 in NW 3.6 mph 4.5 mph 97% 0 in 90.65 W/m2
09:40 58.8 °F 58.1 °F 30.06 in West 4 mph 4.5 mph 97% 0 in 82.33 W/m2
09:45 59 °F 58.3 °F 30.06 in WSW 3.4 mph 3.4 mph 97% 0 in 68.51 W/m2
09:50 59.2 °F 58.5 °F 30.07 in West 3.4 mph 3.4 mph 97% 0 in 65.45 W/m2
09:55 59.2 °F 58.5 °F 30.06 in WNW 3.8 mph 4.5 mph 97% 0 in 61.53 W/m2
10:00 59.2 °F 58.5 °F 30.06 in West 1.3 mph 2.2 mph 97% 0 in 72.79 W/m2
10:05 59.4 °F 58.6 °F 30.06 in West 4.9 mph 6.9 mph 97% 0 in 74.99 W/m2
10:10 59.5 °F 58.8 °F 30.07 in WNW 4 mph 4.5 mph 97% 0 in 66.80 W/m2
10:15 59.5 °F 58.8 °F 30.07 in West 2.7 mph 3.4 mph 97% 0 in 70.71 W/m2
10:20 59.7 °F 59 °F 30.07 in West 1.8 mph 2.2 mph 97% 0 in 104.10 W/m2
10:25 60.1 °F 59.4 °F 30.07 in WNW 2.5 mph 3.4 mph 97% 0 in 92.73 W/m2
10:30 60.1 °F 59.4 °F 30.08 in NW 1.8 mph 2.2 mph 97% 0 in 92.73 W/m2
10:35 60.3 °F 59.5 °F 30.09 in West 0.9 mph 1.1 mph 97% 0 in 94.93 W/m2
10:40 60.3 °F 59.5 °F 30.08 in West 3.4 mph 4.5 mph 97% 0 in 102.27 W/m2
10:45 60.4 °F 59.7 °F 30.08 in WNW 5.4 mph 6.9 mph 97% 0 in 117.07 W/m2
10:50 60.6 °F 59.9 °F 30.08 in West 3.4 mph 3.4 mph 97% 0 in 120.99 W/m2
10:55 60.6 °F 59.9 °F 30.07 in West 2.9 mph 3.4 mph 97% 0 in 124.41 W/m2
11:00 60.8 °F 60.1 °F 30.06 in West 3.4 mph 3.4 mph 97% 0 in 137.51 W/m2
11:05 61.2 °F 60.4 °F 30.06 in WNW 3.4 mph 3.4 mph 97% 0 in 155.24 W/m2
11:10 61.3 °F 60.6 °F 30.05 in WNW 5.1 mph 5.8 mph 97% 0 in 178.24 W/m2
11:15 61.7 °F 60.6 °F 30.05 in WNW 4.5 mph 5.8 mph 96% 0 in 204.66 W/m2
11:20 61.9 °F 60.8 °F 30.05 in NW 3.8 mph 4.5 mph 96% 0 in 193.90 W/m2
11:25 62.2 °F 60.8 °F 30.04 in WSW 3.8 mph 4.5 mph 95% 0 in 245.52 W/m2
11:30 63 °F 61 °F 30.04 in WNW 2.9 mph 3.4 mph 94% 0 in 215.07 W/m2
11:35 63.3 °F 61.2 °F 30.04 in NW 4.5 mph 6.9 mph 93% 0 in 284.92 W/m2
11:40 64 °F 61.7 °F 30.04 in NW 5.4 mph 8.1 mph 92% 0 in 185.58 W/m2
11:45 64.4 °F 61.7 °F 30.04 in NW 2.2 mph 3.4 mph 91% 0 in 166.50 W/m2
11:50 64.6 °F 61.5 °F 30.04 in West 5.8 mph 6.9 mph 90% 0 in 204.30 W/m2
11:55 64.6 °F 61.5 °F 30.04 in West 4.3 mph 4.5 mph 90% 0 in 238.56 W/m2
12:00 65.5 °F 62.1 °F 30.05 in WNW 5.8 mph 6.9 mph 89% 0 in 238.92 W/m2
12:05 65.7 °F 62.2 °F 30.04 in West 2.7 mph 3.4 mph 89% 0 in 251.52 W/m2
12:10 65.8 °F 62.1 °F 30.04 in West 4 mph 4.5 mph 88% 0 in 261.55 W/m2
Soleil Laural Canyon
Compliments of Weather Underground - 2 mb